createdAt,value
2023-02-13T00:00:00.590Z,188
2023-02-13T00:10:00.597Z,248
2023-02-13T00:20:00.565Z,135
2023-02-13T00:30:00.595Z,157
2023-02-13T00:40:00.587Z,161
2023-02-13T00:50:00.557Z,115
2023-02-13T01:00:00.539Z,64
2023-02-13T01:10:00.700Z,64
2023-02-13T01:20:01.190Z,51
2023-02-13T01:30:00.748Z,46
2023-02-13T01:40:00.899Z,31
2023-02-13T01:50:00.862Z,28
2023-02-13T02:00:00.551Z,26
2023-02-13T02:10:00.558Z,26
2023-02-13T02:20:00.572Z,26
2023-02-13T02:30:00.581Z,23
2023-02-13T02:40:00.547Z,23
2023-02-13T02:50:00.567Z,21
2023-02-13T03:00:00.566Z,41
2023-02-13T03:10:00.556Z,38
2023-02-13T03:20:00.542Z,51
2023-02-13T03:30:00.543Z,45
2023-02-13T03:40:00.541Z,50
2023-02-13T03:50:00.830Z,31
2023-02-13T04:00:00.576Z,39
2023-02-13T04:10:00.555Z,51
2023-02-13T04:20:00.828Z,33
2023-02-13T04:30:00.538Z,29
2023-02-13T04:40:00.573Z,260
2023-02-13T04:50:00.531Z,60
2023-02-13T05:00:00.614Z,66
2023-02-13T05:10:00.572Z,324
2023-02-13T05:20:00.548Z,126
2023-02-13T05:30:00.554Z,181
2023-02-13T05:40:00.746Z,185
2023-02-13T05:50:00.833Z,164
2023-02-13T06:00:00.765Z,97
2023-02-13T06:10:00.556Z,69
2023-02-13T06:20:00.594Z,60
2023-02-13T06:30:00.538Z,135
2023-02-13T06:40:00.685Z,147
2023-02-13T06:50:00.619Z,165
2023-02-13T07:00:00.573Z,362
2023-02-13T07:10:00.551Z,315
2023-02-13T07:20:00.555Z,373
2023-02-13T07:30:00.542Z,382
2023-02-13T07:40:00.555Z,400
2023-02-13T07:50:00.576Z,391
2023-02-13T08:00:00.608Z,311
2023-02-13T08:10:00.583Z,315
2023-02-13T08:20:00.617Z,295
2023-02-13T08:30:00.840Z,239
2023-02-13T08:40:00.829Z,220
2023-02-13T08:50:00.552Z,157
2023-02-13T09:00:00.564Z,184
2023-02-13T09:10:00.551Z,117
2023-02-13T09:20:00.582Z,104
2023-02-13T09:30:00.551Z,83
2023-02-13T09:40:00.556Z,73
2023-02-13T09:50:00.577Z,75
2023-02-13T10:00:00.557Z,77
2023-02-13T10:10:00.586Z,89
2023-02-13T10:20:00.560Z,90
2023-02-13T10:30:00.566Z,132
2023-02-13T10:40:00.568Z,86
2023-02-13T10:50:00.785Z,60
2023-02-13T11:00:00.829Z,42
2023-02-13T11:10:00.725Z,41
2023-02-13T11:20:00.651Z,33
2023-02-13T11:30:00.548Z,19
2023-02-13T11:40:00.550Z,15
2023-02-13T11:50:00.551Z,15
2023-02-13T12:00:00.546Z,19
2023-02-13T12:10:02.723Z,15
2023-02-13T12:20:00.599Z,17
2023-02-13T12:30:00.554Z,24
2023-02-13T12:40:00.568Z,33
2023-02-13T12:50:00.881Z,46
2023-02-13T13:00:00.545Z,43
2023-02-13T13:10:00.538Z,50
2023-02-13T13:20:01.073Z,47
2023-02-13T13:30:00.835Z,68
2023-02-13T13:40:00.649Z,64
2023-02-13T13:50:00.593Z,53
2023-02-13T14:00:00.584Z,38
2023-02-13T14:10:00.564Z,24
2023-02-13T14:20:00.560Z,24
2023-02-13T14:30:00.667Z,22
2023-02-13T14:40:00.545Z,72
2023-02-13T14:50:00.568Z,47
2023-02-13T15:00:00.551Z,35
2023-02-13T15:10:00.559Z,40
2023-02-13T15:20:00.568Z,34
2023-02-13T15:30:00.614Z,35
2023-02-13T15:40:00.577Z,29
2023-02-13T15:50:00.550Z,243
2023-02-13T16:00:00.603Z,227
2023-02-13T16:10:00.545Z,285
2023-02-13T16:20:00.528Z,165
2023-02-13T16:30:00.591Z,211
2023-02-13T16:40:00.617Z,148
2023-02-13T16:50:00.559Z,86
2023-02-13T17:00:00.557Z,110
2023-02-13T17:10:00.563Z,134
2023-02-13T17:20:00.760Z,152
2023-02-13T17:30:00.703Z,80
2023-02-13T17:40:00.619Z,65
2023-02-13T17:50:09.223Z,60
2023-02-13T18:00:00.528Z,58
2023-02-13T18:10:00.578Z,61
2023-02-13T18:20:00.834Z,67
2023-02-13T18:30:01.104Z,71
2023-02-13T18:40:00.620Z,88
2023-02-13T18:50:00.568Z,101
2023-02-13T19:00:00.539Z,109
2023-02-13T19:10:00.576Z,125
2023-02-13T19:20:00.547Z,137
2023-02-13T19:30:00.827Z,152
2023-02-13T19:40:00.576Z,148
2023-02-13T19:50:00.577Z,158
2023-02-13T20:00:00.542Z,162
2023-02-13T20:10:00.559Z,155
2023-02-13T20:20:00.796Z,162
2023-02-13T20:30:06.666Z,173
2023-02-13T20:40:00.954Z,183
2023-02-13T20:50:00.858Z,174
2023-02-13T21:00:00.593Z,205
2023-02-13T21:10:00.610Z,174
2023-02-13T21:20:00.565Z,87
2023-02-13T21:30:00.627Z,19
2023-02-13T21:40:00.554Z,77
2023-02-13T21:50:00.537Z,18
2023-02-13T22:00:00.563Z,84
2023-02-13T22:10:00.553Z,49
2023-02-13T22:20:00.582Z,49
2023-02-13T22:30:00.642Z,42
2023-02-13T22:40:00.548Z,108
2023-02-13T22:50:00.580Z,63
2023-02-13T23:00:00.554Z,137
2023-02-13T23:10:00.712Z,195
2023-02-13T23:20:00.847Z,177
2023-02-13T23:30:00.886Z,154
2023-02-13T23:40:00.607Z,95
2023-02-13T23:50:00.568Z,102
